sensor_id;sensor_type;location;lat;lon;timestamp;P1;durP1;ratioP1;P2;durP2;ratioP2
24249;SDS011;12379;49.820;8.648;2022-11-12T00:00:33;2.70;;;2.40;;
24249;SDS011;12379;49.820;8.648;2022-11-12T00:02:59;1.43;;;1.43;;
24249;SDS011;12379;49.820;8.648;2022-11-12T00:05:25;0.83;;;0.70;;
24249;SDS011;12379;49.820;8.648;2022-11-12T00:07:51;1.40;;;0.90;;
24249;SDS011;12379;49.820;8.648;2022-11-12T00:10:17;1.20;;;1.20;;
24249;SDS011;12379;49.820;8.648;2022-11-12T00:12:43;1.10;;;1.00;;
24249;SDS011;12379;49.820;8.648;2022-11-12T00:15:09;2.37;;;2.20;;
24249;SDS011;12379;49.820;8.648;2022-11-12T00:17:34;0.77;;;0.77;;
24249;SDS011;12379;49.820;8.648;2022-11-12T00:20:00;0.80;;;0.80;;
24249;SDS011;12379;49.820;8.648;2022-11-12T00:22:26;1.03;;;1.03;;
24249;SDS011;12379;49.820;8.648;2022-11-12T00:24:52;0.70;;;0.70;;
24249;SDS011;12379;49.820;8.648;2022-11-12T00:27:17;1.00;;;1.00;;
24249;SDS011;12379;49.820;8.648;2022-11-12T00:29:46;1.10;;;1.10;;
24249;SDS011;12379;49.820;8.648;2022-11-12T00:32:11;1.40;;;1.30;;
24249;SDS011;12379;49.820;8.648;2022-11-12T00:34:37;0.40;;;0.40;;
24249;SDS011;12379;49.820;8.648;2022-11-12T00:37:03;1.63;;;1.27;;
24249;SDS011;12379;49.820;8.648;2022-11-12T00:39:29;0.53;;;0.53;;
24249;SDS011;12379;49.820;8.648;2022-11-12T00:41:54;0.90;;;0.60;;
24249;SDS011;12379;49.820;8.648;2022-11-12T00:44:20;0.83;;;0.83;;
24249;SDS011;12379;49.820;8.648;2022-11-12T00:46:46;0.90;;;0.70;;
24249;SDS011;12379;49.820;8.648;2022-11-12T00:49:12;0.50;;;0.50;;
24249;SDS011;12379;49.820;8.648;2022-11-12T00:51:37;0.93;;;0.83;;
24249;SDS011;12379;49.820;8.648;2022-11-12T00:54:03;0.60;;;0.60;;
24249;SDS011;12379;49.820;8.648;2022-11-12T00:56:29;0.57;;;0.57;;
24249;SDS011;12379;49.820;8.648;2022-11-12T00:58:55;1.00;;;0.60;;
24249;SDS011;12379;49.820;8.648;2022-11-12T01:01:22;0.40;;;0.40;;
24249;SDS011;12379;49.820;8.648;2022-11-12T01:03:47;0.97;;;0.60;;
24249;SDS011;12379;49.820;8.648;2022-11-12T01:06:17;0.87;;;0.80;;
24249;SDS011;12379;49.820;8.648;2022-11-12T01:08:47;0.67;;;0.67;;
24249;SDS011;12379;49.820;8.648;2022-11-12T01:11:14;1.10;;;1.10;;
24249;SDS011;12379;49.820;8.648;2022-11-12T01:13:51;0.60;;;0.60;;
24249;SDS011;12379;49.820;8.648;2022-11-12T01:16:22;2.20;;;1.93;;
24249;SDS011;12379;49.820;8.648;2022-11-12T01:18:54;1.00;;;0.97;;
24249;SDS011;12379;49.820;8.648;2022-11-12T01:21:27;0.50;;;0.50;;
24249;SDS011;12379;49.820;8.648;2022-11-12T01:23:55;0.50;;;0.50;;
24249;SDS011;12379;49.820;8.648;2022-11-12T01:26:22;0.70;;;0.70;;
24249;SDS011;12379;49.820;8.648;2022-11-12T01:28:48;0.60;;;0.60;;
24249;SDS011;12379;49.820;8.648;2022-11-12T01:31:15;1.00;;;1.00;;
24249;SDS011;12379;49.820;8.648;2022-11-12T01:33:42;1.20;;;1.10;;
24249;SDS011;12379;49.820;8.648;2022-11-12T01:36:08;0.60;;;0.60;;
24249;SDS011;12379;49.820;8.648;2022-11-12T01:38:35;0.60;;;0.60;;
24249;SDS011;12379;49.820;8.648;2022-11-12T01:41:02;0.50;;;0.50;;
24249;SDS011;12379;49.820;8.648;2022-11-12T01:43:29;0.67;;;0.50;;
24249;SDS011;12379;49.820;8.648;2022-11-12T01:45:54;0.60;;;0.60;;
24249;SDS011;12379;49.820;8.648;2022-11-12T01:48:35;0.90;;;0.90;;
24249;SDS011;12379;49.820;8.648;2022-11-12T01:51:22;1.30;;;1.20;;
24249;SDS011;12379;49.820;8.648;2022-11-12T01:53:52;0.50;;;0.50;;
24249;SDS011;12379;49.820;8.648;2022-11-12T01:56:21;1.20;;;0.57;;
24249;SDS011;12379;49.820;8.648;2022-11-12T01:58:48;1.10;;;0.70;;
24249;SDS011;12379;49.820;8.648;2022-11-12T02:01:19;0.60;;;0.60;;
24249;SDS011;12379;49.820;8.648;2022-11-12T02:03:45;0.73;;;0.70;;
24249;SDS011;12379;49.820;8.648;2022-11-12T02:06:12;0.60;;;0.60;;
24249;SDS011;12379;49.820;8.648;2022-11-12T02:08:39;1.30;;;0.80;;
24249;SDS011;12379;49.820;8.648;2022-11-12T02:11:10;1.43;;;0.73;;
24249;SDS011;12379;49.820;8.648;2022-11-12T02:13:38;0.50;;;0.50;;
24249;SDS011;12379;49.820;8.648;2022-11-12T02:19:01;1.10;;;1.10;;
24249;SDS011;12379;49.820;8.648;2022-11-12T02:21:28;2.77;;;1.13;;
24249;SDS011;12379;49.820;8.648;2022-11-12T02:24:01;0.97;;;0.97;;
24249;SDS011;12379;49.820;8.648;2022-11-12T02:26:51;1.80;;;1.70;;
24249;SDS011;12379;49.820;8.648;2022-11-12T02:29:19;0.93;;;0.93;;
24249;SDS011;12379;49.820;8.648;2022-11-12T02:31:45;1.47;;;1.27;;
24249;SDS011;12379;49.820;8.648;2022-11-12T02:34:11;1.00;;;0.63;;
24249;SDS011;12379;49.820;8.648;2022-11-12T02:36:36;1.33;;;0.77;;
24249;SDS011;12379;49.820;8.648;2022-11-12T02:39:03;2.80;;;1.20;;
24249;SDS011;12379;49.820;8.648;2022-11-12T02:41:29;1.80;;;1.40;;
24249;SDS011;12379;49.820;8.648;2022-11-12T02:43:55;0.60;;;0.60;;
24249;SDS011;12379;49.820;8.648;2022-11-12T02:46:20;1.80;;;1.20;;
24249;SDS011;12379;49.820;8.648;2022-11-12T02:48:46;1.20;;;1.20;;
24249;SDS011;12379;49.820;8.648;2022-11-12T02:51:12;0.60;;;0.60;;
24249;SDS011;12379;49.820;8.648;2022-11-12T02:53:37;1.90;;;1.47;;
24249;SDS011;12379;49.820;8.648;2022-11-12T02:56:03;1.27;;;0.77;;
24249;SDS011;12379;49.820;8.648;2022-11-12T02:58:29;2.00;;;1.17;;
24249;SDS011;12379;49.820;8.648;2022-11-12T03:00:54;1.00;;;0.60;;
24249;SDS011;12379;49.820;8.648;2022-11-12T03:03:20;0.60;;;0.60;;
24249;SDS011;12379;49.820;8.648;2022-11-12T03:05:53;2.10;;;1.90;;
24249;SDS011;12379;49.820;8.648;2022-11-12T03:08:25;0.40;;;0.40;;
24249;SDS011;12379;49.820;8.648;2022-11-12T03:10:51;0.80;;;0.80;;
24249;SDS011;12379;49.820;8.648;2022-11-12T03:13:17;0.60;;;0.50;;
24249;SDS011;12379;49.820;8.648;2022-11-12T03:15:43;0.50;;;0.50;;
24249;SDS011;12379;49.820;8.648;2022-11-12T03:18:09;1.80;;;1.10;;
24249;SDS011;12379;49.820;8.648;2022-11-12T03:20:35;1.03;;;0.70;;
24249;SDS011;12379;49.820;8.648;2022-11-12T03:23:02;0.70;;;0.70;;
24249;SDS011;12379;49.820;8.648;2022-11-12T03:25:29;0.90;;;0.90;;
24249;SDS011;12379;49.820;8.648;2022-11-12T03:27:56;1.30;;;1.20;;
24249;SDS011;12379;49.820;8.648;2022-11-12T03:30:22;0.50;;;0.50;;
24249;SDS011;12379;49.820;8.648;2022-11-12T03:32:47;0.70;;;0.70;;
24249;SDS011;12379;49.820;8.648;2022-11-12T03:35:13;0.90;;;0.90;;
24249;SDS011;12379;49.820;8.648;2022-11-12T03:37:38;1.03;;;1.03;;
24249;SDS011;12379;49.820;8.648;2022-11-12T03:40:04;0.60;;;0.60;;
24249;SDS011;12379;49.820;8.648;2022-11-12T03:42:30;0.40;;;0.40;;
24249;SDS011;12379;49.820;8.648;2022-11-12T03:44:56;1.03;;;1.03;;
24249;SDS011;12379;49.820;8.648;2022-11-12T03:47:21;0.80;;;0.73;;
24249;SDS011;12379;49.820;8.648;2022-11-12T03:49:47;0.97;;;0.97;;
24249;SDS011;12379;49.820;8.648;2022-11-12T03:52:12;1.90;;;0.60;;
24249;SDS011;12379;49.820;8.648;2022-11-12T03:54:38;0.90;;;0.63;;
24249;SDS011;12379;49.820;8.648;2022-11-12T03:57:03;1.03;;;1.00;;
24249;SDS011;12379;49.820;8.648;2022-11-12T03:59:29;0.83;;;0.83;;
24249;SDS011;12379;49.820;8.648;2022-11-12T04:01:54;1.13;;;0.53;;
24249;SDS011;12379;49.820;8.648;2022-11-12T04:04:20;0.70;;;0.70;;
24249;SDS011;12379;49.820;8.648;2022-11-12T04:06:45;0.97;;;0.50;;
24249;SDS011;12379;49.820;8.648;2022-11-12T04:09:29;0.53;;;0.53;;
24249;SDS011;12379;49.820;8.648;2022-11-12T04:11:55;0.60;;;0.60;;
24249;SDS011;12379;49.820;8.648;2022-11-12T04:14:40;1.37;;;1.07;;
24249;SDS011;12379;49.820;8.648;2022-11-12T04:17:06;0.60;;;0.50;;
24249;SDS011;12379;49.820;8.648;2022-11-12T04:19:50;0.70;;;0.70;;
24249;SDS011;12379;49.820;8.648;2022-11-12T04:22:34;0.83;;;0.83;;
24249;SDS011;12379;49.820;8.648;2022-11-12T04:24:59;0.70;;;0.70;;
24249;SDS011;12379;49.820;8.648;2022-11-12T04:27:48;0.93;;;0.70;;
24249;SDS011;12379;49.820;8.648;2022-11-12T04:30:13;0.60;;;0.60;;
24249;SDS011;12379;49.820;8.648;2022-11-12T04:32:50;0.60;;;0.60;;
24249;SDS011;12379;49.820;8.648;2022-11-12T04:35:23;0.50;;;0.50;;
24249;SDS011;12379;49.820;8.648;2022-11-12T04:37:50;0.93;;;0.93;;
24249;SDS011;12379;49.820;8.648;2022-11-12T04:40:16;0.50;;;0.50;;
24249;SDS011;12379;49.820;8.648;2022-11-12T04:43:10;0.80;;;0.67;;
24249;SDS011;12379;49.820;8.648;2022-11-12T04:45:55;0.40;;;0.40;;
24249;SDS011;12379;49.820;8.648;2022-11-12T04:48:22;0.40;;;0.40;;
24249;SDS011;12379;49.820;8.648;2022-11-12T04:50:49;0.90;;;0.57;;
24249;SDS011;12379;49.820;8.648;2022-11-12T04:53:18;1.17;;;1.17;;
24249;SDS011;12379;49.820;8.648;2022-11-12T04:55:44;0.50;;;0.50;;
24249;SDS011;12379;49.820;8.648;2022-11-12T04:58:09;0.60;;;0.60;;
24249;SDS011;12379;49.820;8.648;2022-11-12T05:00:35;6.93;;;1.33;;
24249;SDS011;12379;49.820;8.648;2022-11-12T05:03:00;0.63;;;0.63;;
24249;SDS011;12379;49.820;8.648;2022-11-12T05:05:26;3.07;;;1.17;;
24249;SDS011;12379;49.820;8.648;2022-11-12T05:07:51;0.40;;;0.40;;
24249;SDS011;12379;49.820;8.648;2022-11-12T05:10:17;0.40;;;0.40;;
24249;SDS011;12379;49.820;8.648;2022-11-12T05:12:42;0.40;;;0.40;;
24249;SDS011;12379;49.820;8.648;2022-11-12T05:15:08;0.70;;;0.50;;
24249;SDS011;12379;49.820;8.648;2022-11-12T05:17:36;0.73;;;0.73;;
24249;SDS011;12379;49.820;8.648;2022-11-12T05:20:09;0.40;;;0.40;;
24249;SDS011;12379;49.820;8.648;2022-11-12T05:22:36;0.40;;;0.40;;
24249;SDS011;12379;49.820;8.648;2022-11-12T05:25:02;0.40;;;0.40;;
24249;SDS011;12379;49.820;8.648;2022-11-12T05:27:28;0.63;;;0.63;;
24249;SDS011;12379;49.820;8.648;2022-11-12T05:29:54;1.37;;;0.73;;
24249;SDS011;12379;49.820;8.648;2022-11-12T05:32:19;0.77;;;0.70;;
24249;SDS011;12379;49.820;8.648;2022-11-12T05:34:45;0.50;;;0.50;;
24249;SDS011;12379;49.820;8.648;2022-11-12T05:37:11;0.40;;;0.40;;
24249;SDS011;12379;49.820;8.648;2022-11-12T05:39:37;1.53;;;1.07;;
24249;SDS011;12379;49.820;8.648;2022-11-12T05:42:03;0.40;;;0.40;;
24249;SDS011;12379;49.820;8.648;2022-11-12T05:44:29;0.40;;;0.40;;
24249;SDS011;12379;49.820;8.648;2022-11-12T05:46:55;0.50;;;0.50;;
24249;SDS011;12379;49.820;8.648;2022-11-12T05:49:21;1.07;;;0.80;;
24249;SDS011;12379;49.820;8.648;2022-11-12T05:51:46;1.10;;;1.10;;
24249;SDS011;12379;49.820;8.648;2022-11-12T05:54:12;0.53;;;0.53;;
24249;SDS011;12379;49.820;8.648;2022-11-12T05:56:38;0.50;;;0.50;;
24249;SDS011;12379;49.820;8.648;2022-11-12T05:59:04;0.40;;;0.40;;
24249;SDS011;12379;49.820;8.648;2022-11-12T06:01:32;0.53;;;0.53;;
24249;SDS011;12379;49.820;8.648;2022-11-12T06:03:58;1.93;;;0.67;;
24249;SDS011;12379;49.820;8.648;2022-11-12T06:06:23;3.97;;;0.80;;
24249;SDS011;12379;49.820;8.648;2022-11-12T06:08:49;0.53;;;0.53;;
24249;SDS011;12379;49.820;8.648;2022-11-12T06:11:15;0.40;;;0.40;;
24249;SDS011;12379;49.820;8.648;2022-11-12T06:13:41;0.50;;;0.50;;
24249;SDS011;12379;49.820;8.648;2022-11-12T06:16:06;0.47;;;0.47;;
24249;SDS011;12379;49.820;8.648;2022-11-12T06:18:32;0.53;;;0.53;;
24249;SDS011;12379;49.820;8.648;2022-11-12T06:21:02;0.40;;;0.40;;
24249;SDS011;12379;49.820;8.648;2022-11-12T06:23:44;2.00;;;0.80;;
24249;SDS011;12379;49.820;8.648;2022-11-12T06:26:10;1.07;;;1.07;;
24249;SDS011;12379;49.820;8.648;2022-11-12T06:28:36;1.33;;;0.60;;
24249;SDS011;12379;49.820;8.648;2022-11-12T06:31:01;0.93;;;0.93;;
24249;SDS011;12379;49.820;8.648;2022-11-12T06:33:27;0.47;;;0.47;;
24249;SDS011;12379;49.820;8.648;2022-11-12T06:35:59;0.80;;;0.70;;
24249;SDS011;12379;49.820;8.648;2022-11-12T06:38:27;0.40;;;0.40;;
24249;SDS011;12379;49.820;8.648;2022-11-12T06:40:57;0.40;;;0.40;;
24249;SDS011;12379;49.820;8.648;2022-11-12T06:43:23;0.50;;;0.40;;
24249;SDS011;12379;49.820;8.648;2022-11-12T06:45:51;0.70;;;0.70;;
24249;SDS011;12379;49.820;8.648;2022-11-12T06:48:16;0.50;;;0.50;;
24249;SDS011;12379;49.820;8.648;2022-11-12T06:50:42;0.80;;;0.80;;
24249;SDS011;12379;49.820;8.648;2022-11-12T06:53:07;2.60;;;0.93;;
24249;SDS011;12379;49.820;8.648;2022-11-12T06:55:33;0.80;;;0.80;;
24249;SDS011;12379;49.820;8.648;2022-11-12T06:57:59;0.50;;;0.50;;
24249;SDS011;12379;49.820;8.648;2022-11-12T07:00:24;1.20;;;1.13;;
24249;SDS011;12379;49.820;8.648;2022-11-12T07:02:50;0.40;;;0.40;;
24249;SDS011;12379;49.820;8.648;2022-11-12T07:05:15;0.40;;;0.40;;
24249;SDS011;12379;49.820;8.648;2022-11-12T07:07:41;0.60;;;0.60;;
24249;SDS011;12379;49.820;8.648;2022-11-12T07:10:06;0.77;;;0.77;;
24249;SDS011;12379;49.820;8.648;2022-11-12T07:12:33;0.90;;;0.90;;
24249;SDS011;12379;49.820;8.648;2022-11-12T07:14:58;0.67;;;0.67;;
24249;SDS011;12379;49.820;8.648;2022-11-12T07:17:24;0.90;;;0.50;;
24249;SDS011;12379;49.820;8.648;2022-11-12T07:19:49;0.70;;;0.70;;
24249;SDS011;12379;49.820;8.648;2022-11-12T07:22:15;0.57;;;0.57;;
24249;SDS011;12379;49.820;8.648;2022-11-12T07:24:40;0.57;;;0.57;;
24249;SDS011;12379;49.820;8.648;2022-11-12T07:27:06;0.97;;;0.97;;
24249;SDS011;12379;49.820;8.648;2022-11-12T07:29:31;0.50;;;0.50;;
24249;SDS011;12379;49.820;8.648;2022-11-12T07:31:57;3.27;;;0.73;;
24249;SDS011;12379;49.820;8.648;2022-11-12T07:34:22;1.03;;;0.67;;
24249;SDS011;12379;49.820;8.648;2022-11-12T07:36:48;0.50;;;0.50;;
24249;SDS011;12379;49.820;8.648;2022-11-12T07:39:15;0.60;;;0.60;;
24249;SDS011;12379;49.820;8.648;2022-11-12T07:41:42;0.60;;;0.60;;
24249;SDS011;12379;49.820;8.648;2022-11-12T07:44:07;1.10;;;1.10;;
24249;SDS011;12379;49.820;8.648;2022-11-12T07:46:33;0.70;;;0.70;;
24249;SDS011;12379;49.820;8.648;2022-11-12T07:48:58;0.40;;;0.40;;
24249;SDS011;12379;49.820;8.648;2022-11-12T07:51:25;0.60;;;0.47;;
24249;SDS011;12379;49.820;8.648;2022-11-12T07:53:53;0.40;;;0.40;;
24249;SDS011;12379;49.820;8.648;2022-11-12T07:56:20;0.40;;;0.40;;
24249;SDS011;12379;49.820;8.648;2022-11-12T07:58:47;7.80;;;1.10;;
24249;SDS011;12379;49.820;8.648;2022-11-12T08:03:48;0.50;;;0.50;;
24249;SDS011;12379;49.820;8.648;2022-11-12T08:06:13;0.50;;;0.40;;
24249;SDS011;12379;49.820;8.648;2022-11-12T08:08:46;0.47;;;0.47;;
24249;SDS011;12379;49.820;8.648;2022-11-12T08:11:15;0.90;;;0.90;;
24249;SDS011;12379;49.820;8.648;2022-11-12T08:13:43;0.80;;;0.80;;
24249;SDS011;12379;49.820;8.648;2022-11-12T08:16:14;0.50;;;0.50;;
24249;SDS011;12379;49.820;8.648;2022-11-12T08:18:40;0.50;;;0.50;;
24249;SDS011;12379;49.820;8.648;2022-11-12T08:21:07;0.50;;;0.50;;
24249;SDS011;12379;49.820;8.648;2022-11-12T08:23:35;1.10;;;1.00;;
24249;SDS011;12379;49.820;8.648;2022-11-12T08:26:02;0.40;;;0.40;;
24249;SDS011;12379;49.820;8.648;2022-11-12T08:28:30;0.40;;;0.40;;
24249;SDS011;12379;49.820;8.648;2022-11-12T08:30:57;1.13;;;0.67;;
24249;SDS011;12379;49.820;8.648;2022-11-12T08:33:27;0.60;;;0.60;;
24249;SDS011;12379;49.820;8.648;2022-11-12T08:35:54;0.70;;;0.70;;
24249;SDS011;12379;49.820;8.648;2022-11-12T08:38:20;0.63;;;0.63;;
24249;SDS011;12379;49.820;8.648;2022-11-12T08:40:46;0.50;;;0.40;;
24249;SDS011;12379;49.820;8.648;2022-11-12T08:43:11;0.60;;;0.50;;
24249;SDS011;12379;49.820;8.648;2022-11-12T08:45:37;0.50;;;0.50;;
24249;SDS011;12379;49.820;8.648;2022-11-12T08:48:06;0.70;;;0.70;;
24249;SDS011;12379;49.820;8.648;2022-11-12T08:50:33;1.50;;;1.40;;
24249;SDS011;12379;49.820;8.648;2022-11-12T08:53:00;0.47;;;0.47;;
24249;SDS011;12379;49.820;8.648;2022-11-12T08:55:29;0.57;;;0.57;;
24249;SDS011;12379;49.820;8.648;2022-11-12T08:57:56;0.40;;;0.40;;
24249;SDS011;12379;49.820;8.648;2022-11-12T09:00:26;0.70;;;0.70;;
24249;SDS011;12379;49.820;8.648;2022-11-12T09:02:59;1.03;;;1.03;;
24249;SDS011;12379;49.820;8.648;2022-11-12T09:05:29;0.43;;;0.43;;
24249;SDS011;12379;49.820;8.648;2022-11-12T09:08:05;0.80;;;0.80;;
24249;SDS011;12379;49.820;8.648;2022-11-12T09:10:32;3.07;;;1.13;;
24249;SDS011;12379;49.820;8.648;2022-11-12T09:12:59;1.27;;;1.17;;
24249;SDS011;12379;49.820;8.648;2022-11-12T09:15:25;0.90;;;0.90;;
24249;SDS011;12379;49.820;8.648;2022-11-12T09:17:57;1.07;;;1.07;;
24249;SDS011;12379;49.820;8.648;2022-11-12T09:20:24;3.07;;;2.00;;
24249;SDS011;12379;49.820;8.648;2022-11-12T09:22:52;3.20;;;2.30;;
24249;SDS011;12379;49.820;8.648;2022-11-12T09:25:17;0.80;;;0.80;;
24249;SDS011;12379;49.820;8.648;2022-11-12T09:27:43;6.37;;;5.43;;
24249;SDS011;12379;49.820;8.648;2022-11-12T09:30:09;2.23;;;2.03;;
24249;SDS011;12379;49.820;8.648;2022-11-12T09:32:35;3.17;;;2.47;;
24249;SDS011;12379;49.820;8.648;2022-11-12T09:35:01;1.10;;;1.10;;
24249;SDS011;12379;49.820;8.648;2022-11-12T09:37:26;16.20;;;8.50;;
24249;SDS011;12379;49.820;8.648;2022-11-12T09:39:52;4.20;;;1.27;;
24249;SDS011;12379;49.820;8.648;2022-11-12T09:42:18;1.60;;;1.17;;
24249;SDS011;12379;49.820;8.648;2022-11-12T09:44:49;1.20;;;0.90;;
24249;SDS011;12379;49.820;8.648;2022-11-12T09:47:26;0.93;;;0.80;;
24249;SDS011;12379;49.820;8.648;2022-11-12T09:49:58;2.77;;;2.57;;
24249;SDS011;12379;49.820;8.648;2022-11-12T09:52:49;1.70;;;1.70;;
24249;SDS011;12379;49.820;8.648;2022-11-12T09:55:24;0.70;;;0.70;;
24249;SDS011;12379;49.820;8.648;2022-11-12T09:57:55;2.00;;;1.90;;
24249;SDS011;12379;49.820;8.648;2022-11-12T10:00:21;1.77;;;1.67;;
24249;SDS011;12379;49.820;8.648;2022-11-12T10:05:23;1.17;;;1.00;;
24249;SDS011;12379;49.820;8.648;2022-11-12T10:10:36;1.23;;;0.97;;
24249;SDS011;12379;49.820;8.648;2022-11-12T10:24:49;4.23;;;1.30;;
24249;SDS011;12379;49.820;8.648;2022-11-12T10:27:15;1.00;;;0.90;;
24249;SDS011;12379;49.820;8.648;2022-11-12T10:32:13;0.70;;;0.70;;
24249;SDS011;12379;49.820;8.648;2022-11-12T10:34:40;2.97;;;2.87;;
24249;SDS011;12379;49.820;8.648;2022-11-12T10:37:23;1.67;;;0.60;;
24249;SDS011;12379;49.820;8.648;2022-11-12T10:45:39;1.10;;;1.03;;
24249;SDS011;12379;49.820;8.648;2022-11-12T10:48:06;1.80;;;1.70;;
24249;SDS011;12379;49.820;8.648;2022-11-12T10:50:48;2.50;;;2.37;;
24249;SDS011;12379;49.820;8.648;2022-11-12T10:53:16;0.70;;;0.60;;
24249;SDS011;12379;49.820;8.648;2022-11-12T10:55:58;0.53;;;0.53;;
24249;SDS011;12379;49.820;8.648;2022-11-12T10:58:25;2.77;;;1.93;;
24249;SDS011;12379;49.820;8.648;2022-11-12T11:03:20;0.70;;;0.70;;
24249;SDS011;12379;49.820;8.648;2022-11-12T11:05:52;0.67;;;0.67;;
24249;SDS011;12379;49.820;8.648;2022-11-12T11:13:43;0.60;;;0.60;;
24249;SDS011;12379;49.820;8.648;2022-11-12T11:16:11;1.47;;;1.03;;
24249;SDS011;12379;49.820;8.648;2022-11-12T11:18:40;0.90;;;0.90;;
24249;SDS011;12379;49.820;8.648;2022-11-12T11:23:50;0.80;;;0.80;;
24249;SDS011;12379;49.820;8.648;2022-11-12T11:26:22;6.33;;;0.97;;
24249;SDS011;12379;49.820;8.648;2022-11-12T11:34:56;0.40;;;0.40;;
24249;SDS011;12379;49.820;8.648;2022-11-12T11:40:36;1.33;;;1.27;;
24249;SDS011;12379;49.820;8.648;2022-11-12T11:45:58;1.00;;;0.60;;
24249;SDS011;12379;49.820;8.648;2022-11-12T11:51:56;1.33;;;1.13;;
24249;SDS011;12379;49.820;8.648;2022-11-12T11:54:45;1.10;;;1.00;;
24249;SDS011;12379;49.820;8.648;2022-11-12T12:00:38;2.93;;;1.27;;
24249;SDS011;12379;49.820;8.648;2022-11-12T12:03:18;2.50;;;2.30;;
24249;SDS011;12379;49.820;8.648;2022-11-12T12:15:57;0.83;;;0.83;;
24249;SDS011;12379;49.820;8.648;2022-11-12T12:21:45;1.77;;;0.90;;
24249;SDS011;12379;49.820;8.648;2022-11-12T12:24:34;1.37;;;1.27;;
24249;SDS011;12379;49.820;8.648;2022-11-12T12:27:11;4.73;;;1.60;;
24249;SDS011;12379;49.820;8.648;2022-11-12T12:29:44;2.93;;;1.27;;
24249;SDS011;12379;49.820;8.648;2022-11-12T12:32:34;0.60;;;0.60;;
24249;SDS011;12379;49.820;8.648;2022-11-12T12:35:15;1.20;;;1.20;;
24249;SDS011;12379;49.820;8.648;2022-11-12T12:38:11;1.30;;;1.20;;
24249;SDS011;12379;49.820;8.648;2022-11-12T12:40:50;1.63;;;1.57;;
24249;SDS011;12379;49.820;8.648;2022-11-12T12:44:11;2.67;;;1.43;;
24249;SDS011;12379;49.820;8.648;2022-11-12T12:46:14;1.87;;;1.77;;
24249;SDS011;12379;49.820;8.648;2022-11-12T12:48:44;0.90;;;0.90;;
24249;SDS011;12379;49.820;8.648;2022-11-12T12:51:11;2.50;;;1.43;;
24249;SDS011;12379;49.820;8.648;2022-11-12T12:53:37;1.50;;;1.40;;
24249;SDS011;12379;49.820;8.648;2022-11-12T12:58:42;3.37;;;1.37;;
24249;SDS011;12379;49.820;8.648;2022-11-12T13:06:32;3.97;;;2.17;;
24249;SDS011;12379;49.820;8.648;2022-11-12T13:16:59;2.70;;;1.70;;
24249;SDS011;12379;49.820;8.648;2022-11-12T13:19:27;10.20;;;5.80;;
24249;SDS011;12379;49.820;8.648;2022-11-12T13:25:03;16.87;;;5.43;;
24249;SDS011;12379;49.820;8.648;2022-11-12T13:30:53;20.27;;;6.80;;
24249;SDS011;12379;49.820;8.648;2022-11-12T13:32:55;12.43;;;5.63;;
24249;SDS011;12379;49.820;8.648;2022-11-12T13:45:31;55.73;;;8.70;;
24249;SDS011;12379;49.820;8.648;2022-11-12T13:48:07;33.50;;;5.40;;
24249;SDS011;12379;49.820;8.648;2022-11-12T13:50:37;4.40;;;3.00;;
24249;SDS011;12379;49.820;8.648;2022-11-12T13:53:05;2.33;;;2.00;;
24249;SDS011;12379;49.820;8.648;2022-11-12T13:55:34;1.80;;;1.70;;
24249;SDS011;12379;49.820;8.648;2022-11-12T13:58:00;2.20;;;1.83;;
24249;SDS011;12379;49.820;8.648;2022-11-12T14:00:26;1.20;;;0.90;;
24249;SDS011;12379;49.820;8.648;2022-11-12T14:05:22;2.83;;;1.43;;
24249;SDS011;12379;49.820;8.648;2022-11-12T14:07:58;1.63;;;1.40;;
24249;SDS011;12379;49.820;8.648;2022-11-12T14:13:37;1.17;;;0.80;;
24249;SDS011;12379;49.820;8.648;2022-11-12T14:22:24;2.20;;;2.00;;
24249;SDS011;12379;49.820;8.648;2022-11-12T14:24:51;11.87;;;3.60;;
24249;SDS011;12379;49.820;8.648;2022-11-12T14:32:41;2.23;;;1.63;;
24249;SDS011;12379;49.820;8.648;2022-11-12T14:37:56;1.53;;;0.80;;
24249;SDS011;12379;49.820;8.648;2022-11-12T14:40:47;1.83;;;1.30;;
24249;SDS011;12379;49.820;8.648;2022-11-12T14:43:35;1.60;;;1.50;;
24249;SDS011;12379;49.820;8.648;2022-11-12T14:46:05;2.37;;;1.47;;
24249;SDS011;12379;49.820;8.648;2022-11-12T14:48:43;2.03;;;1.80;;
24249;SDS011;12379;49.820;8.648;2022-11-12T14:51:12;3.73;;;3.53;;
24249;SDS011;12379;49.820;8.648;2022-11-12T14:53:46;2.23;;;2.03;;
24249;SDS011;12379;49.820;8.648;2022-11-12T14:56:27;6.67;;;1.77;;
24249;SDS011;12379;49.820;8.648;2022-11-12T14:58:54;1.53;;;1.43;;
24249;SDS011;12379;49.820;8.648;2022-11-12T15:01:31;2.83;;;2.20;;
24249;SDS011;12379;49.820;8.648;2022-11-12T15:04:18;3.40;;;2.67;;
24249;SDS011;12379;49.820;8.648;2022-11-12T15:06:52;7.60;;;2.47;;
24249;SDS011;12379;49.820;8.648;2022-11-12T15:09:30;2.83;;;2.10;;
24249;SDS011;12379;49.820;8.648;2022-11-12T15:12:00;1.43;;;1.43;;
24249;SDS011;12379;49.820;8.648;2022-11-12T15:14:27;2.60;;;2.40;;
24249;SDS011;12379;49.820;8.648;2022-11-12T15:16:53;2.70;;;2.03;;
24249;SDS011;12379;49.820;8.648;2022-11-12T15:19:19;3.07;;;2.87;;
24249;SDS011;12379;49.820;8.648;2022-11-12T15:21:55;3.60;;;2.80;;
24249;SDS011;12379;49.820;8.648;2022-11-12T15:24:26;5.30;;;2.60;;
24249;SDS011;12379;49.820;8.648;2022-11-12T15:26:55;2.70;;;2.50;;
24249;SDS011;12379;49.820;8.648;2022-11-12T15:29:32;4.77;;;1.60;;
24249;SDS011;12379;49.820;8.648;2022-11-12T15:32:00;13.43;;;2.30;;
24249;SDS011;12379;49.820;8.648;2022-11-12T15:37:04;1.30;;;1.20;;
24249;SDS011;12379;49.820;8.648;2022-11-12T15:39:39;1.47;;;1.47;;
24249;SDS011;12379;49.820;8.648;2022-11-12T15:42:15;2.70;;;1.93;;
24249;SDS011;12379;49.820;8.648;2022-11-12T15:44:50;2.50;;;2.30;;
24249;SDS011;12379;49.820;8.648;2022-11-12T15:47:26;3.50;;;1.97;;
24249;SDS011;12379;49.820;8.648;2022-11-12T15:49:53;2.13;;;2.00;;
24249;SDS011;12379;49.820;8.648;2022-11-12T15:52:21;2.20;;;1.33;;
24249;SDS011;12379;49.820;8.648;2022-11-12T15:54:47;2.60;;;2.40;;
24249;SDS011;12379;49.820;8.648;2022-11-12T15:57:14;1.43;;;1.33;;
24249;SDS011;12379;49.820;8.648;2022-11-12T15:59:43;2.93;;;2.83;;
24249;SDS011;12379;49.820;8.648;2022-11-12T16:02:11;2.20;;;2.00;;
24249;SDS011;12379;49.820;8.648;2022-11-12T16:04:37;2.60;;;2.40;;
24249;SDS011;12379;49.820;8.648;2022-11-12T16:07:03;3.63;;;2.40;;
24249;SDS011;12379;49.820;8.648;2022-11-12T16:09:30;2.47;;;2.37;;
24249;SDS011;12379;49.820;8.648;2022-11-12T16:11:57;1.30;;;1.20;;
24249;SDS011;12379;49.820;8.648;2022-11-12T16:14:24;1.37;;;1.27;;
24249;SDS011;12379;49.820;8.648;2022-11-12T16:16:50;3.20;;;2.17;;
24249;SDS011;12379;49.820;8.648;2022-11-12T16:19:17;3.83;;;3.53;;
24249;SDS011;12379;49.820;8.648;2022-11-12T16:21:42;4.47;;;2.87;;
24249;SDS011;12379;49.820;8.648;2022-11-12T16:24:08;1.70;;;1.60;;
24249;SDS011;12379;49.820;8.648;2022-11-12T16:26:34;5.17;;;3.00;;
24249;SDS011;12379;49.820;8.648;2022-11-12T16:29:00;5.43;;;2.83;;
24249;SDS011;12379;49.820;8.648;2022-11-12T16:31:26;5.20;;;3.07;;
24249;SDS011;12379;49.820;8.648;2022-11-12T16:33:52;2.07;;;1.97;;
24249;SDS011;12379;49.820;8.648;2022-11-12T16:36:17;1.27;;;1.27;;
24249;SDS011;12379;49.820;8.648;2022-11-12T16:38:44;1.87;;;1.77;;
24249;SDS011;12379;49.820;8.648;2022-11-12T16:41:11;3.57;;;2.20;;
24249;SDS011;12379;49.820;8.648;2022-11-12T16:43:38;3.07;;;2.87;;
24249;SDS011;12379;49.820;8.648;2022-11-12T16:46:20;5.30;;;1.70;;
24249;SDS011;12379;49.820;8.648;2022-11-12T16:48:50;3.00;;;1.87;;
24249;SDS011;12379;49.820;8.648;2022-11-12T16:51:17;4.30;;;3.90;;
24249;SDS011;12379;49.820;8.648;2022-11-12T16:53:43;2.03;;;1.93;;
24249;SDS011;12379;49.820;8.648;2022-11-12T16:56:13;2.83;;;2.60;;
24249;SDS011;12379;49.820;8.648;2022-11-12T16:58:44;2.60;;;2.50;;
24249;SDS011;12379;49.820;8.648;2022-11-12T17:01:22;3.70;;;3.20;;
24249;SDS011;12379;49.820;8.648;2022-11-12T17:03:53;1.90;;;1.80;;
24249;SDS011;12379;49.820;8.648;2022-11-12T17:06:20;4.07;;;3.37;;